Time,TemperatureF,DewpointF,PressureIn,WindDirection,WindDirectionDegrees,WindSpeedMPH,WindSpeedGustMPH,Humidity,HourlyPrecipIn,Conditions,Clouds,dailyrainin,SoftwareType,DateUTC
2013-03-04 00:01:00,21.0,7.6,29.93,WSW,248,0.0,0.0,56,0.00,,,0.00,WUHU215HW,2013-03-04 07:01:00,
2013-03-04 00:06:00,20.8,7.4,29.93,WSW,248,0.0,0.0,56,0.00,,,0.00,WUHU215HW,2013-03-04 07:06:00,
2013-03-04 00:12:00,20.8,7.8,29.93,WSW,248,0.0,0.0,57,0.00,,,0.00,WUHU215HW,2013-03-04 07:12:00,
2013-03-04 00:17:00,20.4,7.5,29.93,WSW,248,0.0,0.0,57,0.00,,,0.00,WUHU215HW,2013-03-04 07:17:00,
2013-03-04 00:22:00,20.4,7.9,29.93,WSW,248,0.0,0.0,58,0.00,,,0.00,WUHU215HW,2013-03-04 07:22:00,
2013-03-04 00:27:00,20.1,7.6,29.93,WSW,248,0.0,0.0,58,0.00,,,0.00,WUHU215HW,2013-03-04 07:27:00,
2013-03-04 00:32:00,19.9,7.4,29.93,WSW,248,0.0,0.0,58,0.00,,,0.00,WUHU215HW,2013-03-04 07:32:00,
2013-03-04 00:37:00,19.5,7.4,29.93,WSW,248,0.0,0.0,59,0.00,,,0.00,WUHU215HW,2013-03-04 07:37:00,
2013-03-04 00:42:00,19.5,7.4,29.93,WSW,248,0.0,0.0,59,0.00,,,0.00,WUHU215HW,2013-03-04 07:42:00,
2013-03-04 00:47:00,19.5,7.4,29.93,WSW,248,0.0,0.0,59,0.00,,,0.00,WUHU215HW,2013-03-04 07:47:00,
2013-03-04 00:52:00,19.2,7.1,29.93,WSW,248,0.0,0.0,59,0.00,,,0.00,WUHU215HW,2013-03-04 07:52:00,
2013-03-04 00:57:00,19.0,6.9,29.93,WSW,248,0.0,0.0,59,0.00,,,0.00,WUHU215HW,2013-03-04 07:57:00,
2013-03-04 01:02:00,18.6,7.0,29.93,WSW,248,0.0,0.0,60,0.00,,,0.00,WUHU215HW,2013-03-04 08:02:00,
2013-03-04 01:07:00,18.5,6.8,29.94,WSW,248,0.0,0.0,60,0.00,,,0.00,WUHU215HW,2013-03-04 08:07:00,
2013-03-04 01:12:00,18.3,6.7,29.94,WSW,248,0.0,0.0,60,0.00,,,0.00,WUHU215HW,2013-03-04 08:12:00,
2013-03-04 01:17:00,18.1,6.9,29.94,WSW,248,0.0,0.0,61,0.00,,,0.00,WUHU215HW,2013-03-04 08:17:00,
2013-03-04 01:22:00,18.1,6.9,29.94,WSW,248,0.0,0.0,61,0.00,,,0.00,WUHU215HW,2013-03-04 08:22:00,
2013-03-04 01:27:00,18.1,7.2,29.95,WSW,248,0.0,0.0,62,0.00,,,0.00,WUHU215HW,2013-03-04 08:27:00,
2013-03-04 01:32:00,18.1,7.2,29.94,WSW,248,0.0,0.0,62,0.00,,,0.00,WUHU215HW,2013-03-04 08:32:00,
2013-03-04 01:37:00,17.9,7.0,29.94,WSW,248,0.0,0.0,62,0.00,,,0.00,WUHU215HW,2013-03-04 08:37:00,
2013-03-04 01:42:00,17.7,6.9,29.94,WSW,248,0.0,0.0,62,0.00,,,0.00,WUHU215HW,2013-03-04 08:42:00,
2013-03-04 01:47:00,17.4,6.5,29.94,WSW,248,0.0,0.0,62,0.00,,,0.00,WUHU215HW,2013-03-04 08:47:00,
2013-03-04 01:52:00,17.4,6.5,29.95,WSW,248,0.0,0.0,62,0.00,,,0.00,WUHU215HW,2013-03-04 08:52:00,
2013-03-04 01:57:00,17.0,6.2,29.95,WSW,248,0.0,0.0,62,0.00,,,0.00,WUHU215HW,2013-03-04 08:57:00,
2013-03-04 02:02:00,16.8,6.3,29.95,WSW,248,0.0,0.0,63,0.00,,,0.00,WUHU215HW,2013-03-04 09:02:00,
2013-03-04 02:07:00,16.8,6.3,29.95,WSW,248,0.0,0.0,63,0.00,,,0.00,WUHU215HW,2013-03-04 09:07:00,
2013-03-04 02:12:00,16.8,6.7,29.95,WSW,248,0.0,0.0,64,0.00,,,0.00,WUHU215HW,2013-03-04 09:12:00,
2013-03-04 02:17:00,16.8,6.3,29.95,WSW,248,0.0,0.0,63,0.00,,,0.00,WUHU215HW,2013-03-04 09:17:00,
2013-03-04 02:22:00,16.5,6.3,29.96,WSW,248,0.0,0.0,64,0.00,,,0.00,WUHU215HW,2013-03-04 09:22:00,
2013-03-04 02:27:00,16.3,6.1,29.96,WSW,248,0.0,0.0,64,0.00,,,0.00,WUHU215HW,2013-03-04 09:27:00,
2013-03-04 02:32:00,16.1,6.0,29.96,WSW,248,0.0,0.0,64,0.00,,,0.00,WUHU215HW,2013-03-04 09:32:00,
2013-03-04 02:37:00,16.3,5.8,29.96,WSW,248,0.0,0.0,63,0.00,,,0.00,WUHU215HW,2013-03-04 09:37:00,
2013-03-04 02:42:00,16.3,6.1,29.96,WSW,248,0.0,0.0,64,0.00,,,0.00,WUHU215HW,2013-03-04 09:42:00,
2013-03-04 02:47:00,16.1,6.0,29.96,WSW,248,0.0,0.0,64,0.00,,,0.00,WUHU215HW,2013-03-04 09:47:00,
2013-03-04 02:52:00,16.1,6.3,29.96,WSW,248,0.0,0.0,65,0.00,,,0.00,WUHU215HW,2013-03-04 09:52:00,
2013-03-04 02:57:00,16.3,6.5,29.95,WSW,248,0.0,0.0,65,0.00,,,0.00,WUHU215HW,2013-03-04 09:57:00,
2013-03-04 03:02:00,16.3,6.5,29.95,WSW,248,0.0,0.0,65,0.00,,,0.00,WUHU215HW,2013-03-04 10:02:00,
2013-03-04 03:07:00,15.9,6.1,29.95,WSW,248,0.0,0.0,65,0.00,,,0.00,WUHU215HW,2013-03-04 10:07:00,
2013-03-04 03:12:00,15.8,5.9,29.96,WSW,248,0.0,0.0,65,0.00,,,0.00,WUHU215HW,2013-03-04 10:12:00,
2013-03-04 03:17:00,15.6,5.8,29.95,WSW,248,0.0,0.0,65,0.00,,,0.00,WUHU215HW,2013-03-04 10:17:00,
2013-03-04 03:22:00,15.4,5.6,29.95,WSW,248,0.0,0.0,65,0.00,,,0.00,WUHU215HW,2013-03-04 10:22:00,
2013-03-04 03:27:00,15.4,5.6,29.95,WSW,248,0.0,0.0,65,0.00,,,0.00,WUHU215HW,2013-03-04 10:27:00,
2013-03-04 03:32:00,15.4,5.6,29.95,WSW,248,0.0,0.0,65,0.00,,,0.00,WUHU215HW,2013-03-04 10:32:00,
2013-03-04 03:37:00,15.4,5.6,29.96,WSW,248,0.0,0.0,65,0.00,,,0.00,WUHU215HW,2013-03-04 10:37:00,
2013-03-04 03:42:00,15.0,5.3,29.96,WSW,248,0.0,0.0,65,0.00,,,0.00,WUHU215HW,2013-03-04 10:42:00,
2013-03-04 03:47:00,14.9,5.1,29.95,WSW,248,0.0,0.0,65,0.00,,,0.00,WUHU215HW,2013-03-04 10:47:00,
2013-03-04 03:52:00,14.7,5.3,29.96,WSW,248,0.0,0.0,66,0.00,,,0.00,WUHU215HW,2013-03-04 10:52:00,
2013-03-04 03:57:00,14.7,5.3,29.95,WSW,248,0.0,0.0,66,0.00,,,0.00,WUHU215HW,2013-03-04 10:57:00,
2013-03-04 04:02:00,14.5,5.1,29.96,WSW,248,0.0,0.0,66,0.00,,,0.00,WUHU215HW,2013-03-04 11:02:00,
2013-03-04 04:07:00,14.5,5.1,29.96,WSW,248,0.0,0.0,66,0.00,,,0.00,WUHU215HW,2013-03-04 11:07:00,
2013-03-04 04:12:00,14.3,5.0,29.96,WSW,248,0.0,0.0,66,0.00,,,0.00,WUHU215HW,2013-03-04 11:12:00,
2013-03-04 04:17:00,14.3,5.0,29.96,WSW,248,0.0,0.0,66,0.00,,,0.00,WUHU215HW,2013-03-04 11:17:00,
2013-03-04 04:22:00,14.5,5.5,29.96,WSW,248,0.0,0.0,67,0.00,,,0.00,WUHU215HW,2013-03-04 11:22:00,
2013-03-04 04:27:00,14.7,5.7,29.96,WSW,248,0.0,0.0,67,0.00,,,0.00,WUHU215HW,2013-03-04 11:27:00,
2013-03-04 04:32:00,14.7,5.7,29.96,WSW,248,0.0,0.0,67,0.00,,,0.00,WUHU215HW,2013-03-04 11:32:00,
2013-03-04 04:37:00,14.7,5.7,29.97,WSW,248,0.0,0.0,67,0.00,,,0.00,WUHU215HW,2013-03-04 11:37:00,
2013-03-04 04:42:00,14.9,5.5,29.96,WSW,248,0.0,0.0,66,0.00,,,0.00,WUHU215HW,2013-03-04 11:42:00,
2013-03-04 04:47:00,14.9,5.5,29.97,WSW,248,0.0,0.0,66,0.00,,,0.00,WUHU215HW,2013-03-04 11:47:00,
2013-03-04 04:52:00,14.9,5.5,29.97,WSW,248,0.0,0.0,66,0.00,,,0.00,WUHU215HW,2013-03-04 11:52:00,
2013-03-04 04:57:00,15.0,6.0,29.96,WSW,248,0.0,0.0,67,0.00,,,0.00,WUHU215HW,2013-03-04 11:57:00,
2013-03-04 05:02:00,15.0,6.0,29.97,WSW,248,0.0,0.0,67,0.00,,,0.00,WUHU215HW,2013-03-04 12:02:00,
2013-03-04 05:07:00,14.7,5.3,29.97,WSW,248,0.0,0.0,66,0.00,,,0.00,WUHU215HW,2013-03-04 12:07:00,
2013-03-04 05:12:00,14.5,5.5,29.97,WSW,248,0.0,0.0,67,0.00,,,0.00,WUHU215HW,2013-03-04 12:12:00,
2013-03-04 05:17:00,14.1,5.2,29.97,WSW,248,0.0,0.0,67,0.00,,,0.00,WUHU215HW,2013-03-04 12:17:00,
2013-03-04 05:22:00,14.0,5.0,29.97,WSW,248,0.0,0.0,67,0.00,,,0.00,WUHU215HW,2013-03-04 12:22:00,
2013-03-04 05:27:00,13.8,5.2,29.97,WSW,248,0.0,0.0,68,0.00,,,0.00,WUHU215HW,2013-03-04 12:27:00,
2013-03-04 05:32:00,13.8,5.2,29.97,WSW,248,0.0,0.0,68,0.00,,,0.00,WUHU215HW,2013-03-04 12:32:00,
2013-03-04 05:37:00,13.8,5.2,29.97,WSW,248,0.0,0.0,68,0.00,,,0.00,WUHU215HW,2013-03-04 12:37:00,
2013-03-04 05:42:00,13.8,5.2,29.97,WSW,248,0.0,0.0,68,0.00,,,0.00,WUHU215HW,2013-03-04 12:42:00,
2013-03-04 05:47:00,13.8,5.2,29.98,WSW,248,0.0,0.0,68,0.00,,,0.00,WUHU215HW,2013-03-04 12:47:00,
2013-03-04 05:52:00,13.6,5.0,29.97,WSW,248,0.0,0.0,68,0.00,,,0.00,WUHU215HW,2013-03-04 12:52:00,
2013-03-04 05:57:00,13.2,4.6,29.97,WSW,248,0.0,0.0,68,0.00,,,0.00,WUHU215HW,2013-03-04 12:57:00,
2013-03-04 06:02:00,13.2,4.6,29.97,WSW,248,0.0,0.0,68,0.00,,,0.00,WUHU215HW,2013-03-04 13:02:00,
2013-03-04 06:07:00,13.2,5.0,29.98,WSW,248,0.0,0.0,69,0.00,,,0.00,WUHU215HW,2013-03-04 13:07:00,
2013-03-04 06:12:00,13.2,5.0,29.98,WSW,248,0.0,0.0,69,0.00,,,0.00,WUHU215HW,2013-03-04 13:12:00,
2013-03-04 06:17:00,13.2,5.0,29.98,WSW,248,0.0,0.0,69,0.00,,,0.00,WUHU215HW,2013-03-04 13:17:00,
2013-03-04 06:22:00,13.1,4.8,29.98,WSW,248,0.0,0.0,69,0.00,,,0.00,WUHU215HW,2013-03-04 13:22:00,
2013-03-04 06:27:00,12.7,4.4,29.98,WSW,248,0.0,0.0,69,0.00,,,0.00,WUHU215HW,2013-03-04 13:27:00,
2013-03-04 06:32:00,12.7,4.4,29.99,WSW,248,0.0,0.0,69,0.00,,,0.00,WUHU215HW,2013-03-04 13:32:00,
2013-03-04 06:37:00,12.9,4.6,29.98,WSW,248,0.0,0.0,69,0.00,,,0.00,WUHU215HW,2013-03-04 13:37:00,
2013-03-04 06:42:00,13.1,4.8,29.99,WSW,248,0.0,0.0,69,0.00,,,0.00,WUHU215HW,2013-03-04 13:42:00,
2013-03-04 06:47:00,13.1,4.8,29.99,WSW,248,0.0,0.0,69,0.00,,,0.00,WUHU215HW,2013-03-04 13:47:00,
2013-03-04 06:52:00,13.1,4.8,29.98,WSW,248,0.0,0.0,69,0.00,,,0.00,WUHU215HW,2013-03-04 13:52:00,
2013-03-04 06:57:00,13.1,4.8,29.99,WSW,248,0.0,0.0,69,0.00,,,0.00,WUHU215HW,2013-03-04 13:57:00,
2013-03-04 07:02:00,12.9,4.6,29.99,WSW,248,0.0,0.0,69,0.00,,,0.00,WUHU215HW,2013-03-04 14:02:00,
2013-03-04 07:07:00,12.7,4.4,29.98,WSW,248,0.0,0.0,69,0.00,,,0.00,WUHU215HW,2013-03-04 14:07:00,
2013-03-04 07:12:00,12.3,4.1,29.99,WSW,248,0.0,0.0,69,0.00,,,0.00,WUHU215HW,2013-03-04 14:12:00,
2013-03-04 07:17:00,12.3,4.1,29.99,WSW,248,0.0,0.0,69,0.00,,,0.00,WUHU215HW,2013-03-04 14:17:00,
2013-03-04 07:22:00,12.3,4.4,29.99,WSW,248,0.0,0.0,70,0.00,,,0.00,WUHU215HW,2013-03-04 14:22:00,
2013-03-04 07:27:00,12.2,4.2,29.99,WSW,248,0.0,0.0,70,0.00,,,0.00,WUHU215HW,2013-03-04 14:27:00,
2013-03-04 07:32:00,12.2,4.2,29.99,WSW,248,0.0,0.0,70,0.00,,,0.00,WUHU215HW,2013-03-04 14:32:00,
2013-03-04 07:37:00,12.2,4.5,29.99,WSW,248,0.0,0.0,71,0.00,,,0.00,WUHU215HW,2013-03-04 14:37:00,
2013-03-04 07:42:00,12.5,4.9,29.99,WSW,248,0.0,0.0,71,0.00,,,0.00,WUHU215HW,2013-03-04 14:42:00,
2013-03-04 07:47:00,12.7,5.1,29.99,WSW,248,0.0,0.0,71,0.00,,,0.00,WUHU215HW,2013-03-04 14:47:00,
2013-03-04 07:52:00,12.7,5.1,29.99,WSW,248,0.0,0.0,71,0.00,,,0.00,WUHU215HW,2013-03-04 14:52:00,
2013-03-04 07:57:00,12.9,5.2,29.99,WSW,248,0.0,0.0,71,0.00,,,0.00,WUHU215HW,2013-03-04 14:57:00,
2013-03-04 08:02:00,13.1,5.4,29.99,WSW,248,0.0,0.0,71,0.00,,,0.00,WUHU215HW,2013-03-04 15:02:00,
2013-03-04 08:07:00,13.2,5.6,29.99,WSW,248,0.0,0.0,71,0.00,,,0.00,WUHU215HW,2013-03-04 15:07:00,
2013-03-04 08:12:00,13.2,5.6,30.00,WSW,248,0.0,0.0,71,0.00,,,0.00,WUHU215HW,2013-03-04 15:12:00,
2013-03-04 08:17:00,13.2,5.6,30.00,WSW,248,0.0,0.0,71,0.00,,,0.00,WUHU215HW,2013-03-04 15:17:00,
2013-03-04 08:22:00,13.6,6.0,30.00,WSW,248,0.0,0.0,71,0.00,,,0.00,WUHU215HW,2013-03-04 15:22:00,
2013-03-04 08:27:00,13.6,6.0,30.00,WSW,248,0.0,0.0,71,0.00,,,0.00,WUHU215HW,2013-03-04 15:27:00,
2013-03-04 08:32:00,13.8,6.1,30.01,WSW,248,0.0,0.0,71,0.00,,,0.00,WUHU215HW,2013-03-04 15:32:00,
2013-03-04 08:37:00,14.1,6.5,30.01,WSW,248,0.0,0.0,71,0.00,,,0.00,WUHU215HW,2013-03-04 15:37:00,
2013-03-04 08:42:00,14.7,7.0,30.01,WSW,248,0.0,0.0,71,0.00,,,0.00,WUHU215HW,2013-03-04 15:42:00,
2013-03-04 08:47:00,15.0,7.3,30.01,WSW,248,0.0,0.0,71,0.00,,,0.00,WUHU215HW,2013-03-04 15:47:00,
2013-03-04 08:52:00,15.6,7.5,30.01,WSW,248,0.0,0.0,70,0.00,,,0.00,WUHU215HW,2013-03-04 15:52:00,
2013-03-04 08:57:00,16.1,8.0,30.01,WSW,248,0.0,0.0,70,0.00,,,0.00,WUHU215HW,2013-03-04 15:57:00,
2013-03-04 09:02:00,16.7,8.2,30.01,WSW,248,0.0,0.0,69,0.00,,,0.00,WUHU215HW,2013-03-04 16:02:00,
2013-03-04 09:07:00,17.7,9.6,30.02,WSW,248,0.0,0.0,70,0.00,,,0.00,WUHU215HW,2013-03-04 16:07:00,
2013-03-04 09:12:00,18.3,10.1,30.01,WSW,248,0.0,0.0,70,0.00,,,0.00,WUHU215HW,2013-03-04 16:12:00,
2013-03-04 09:17:00,19.5,11.3,30.02,WSW,248,0.0,0.0,70,0.00,,,0.00,WUHU215HW,2013-03-04 16:17:00,
2013-03-04 09:22:00,20.8,12.2,30.02,WSW,248,0.0,0.0,69,0.00,,,0.00,WUHU215HW,2013-03-04 16:22:00,
2013-03-04 09:27:00,22.1,13.1,30.02,WSW,248,0.0,0.0,68,0.00,,,0.00,WUHU215HW,2013-03-04 16:27:00,
2013-03-04 09:32:00,23.1,13.4,30.02,WSW,248,0.0,0.0,66,0.00,,,0.00,WUHU215HW,2013-03-04 16:32:00,
2013-03-04 09:37:00,25.5,14.6,30.02,WSW,248,0.0,0.0,63,0.00,,,0.00,WUHU215HW,2013-03-04 16:37:00,
2013-03-04 09:42:00,27.6,15.9,30.02,WSW,248,0.0,0.0,61,0.00,,,0.00,WUHU215HW,2013-03-04 16:42:00,
2013-03-04 09:47:00,29.4,16.0,30.01,WSW,248,0.0,0.0,57,0.00,,,0.00,WUHU215HW,2013-03-04 16:47:00,
2013-03-04 09:52:00,32.1,17.3,30.01,WSW,248,0.0,0.0,54,0.00,,,0.00,WUHU215HW,2013-03-04 16:52:00,
2013-03-04 09:57:00,36.1,19.3,30.01,WSW,248,0.0,0.0,50,0.00,,,0.00,WUHU215HW,2013-03-04 16:57:00,
2013-03-04 10:02:00,38.8,20.7,30.02,WSW,248,0.0,0.0,48,0.00,,,0.00,WUHU215HW,2013-03-04 17:02:00,
2013-03-04 10:07:00,40.8,19.9,30.02,WSW,248,0.0,0.0,43,0.00,,,0.00,WUHU215HW,2013-03-04 17:07:00,
2013-03-04 10:12:00,40.1,18.7,30.01,WSW,248,0.0,0.0,42,0.00,,,0.00,WUHU215HW,2013-03-04 17:12:00,
2013-03-04 10:17:00,37.9,16.7,30.01,WSW,248,0.0,0.0,42,0.00,,,0.00,WUHU215HW,2013-03-04 17:17:00,
2013-03-04 10:22:00,34.3,14.0,30.01,WSW,248,0.0,0.0,43,0.00,,,0.00,WUHU215HW,2013-03-04 17:22:00,
2013-03-04 10:27:00,32.9,12.7,30.01,North,0,0.0,0.0,43,0.00,,,0.00,WUHU215HW,2013-03-04 17:27:00,
2013-03-04 10:32:00,32.1,12.0,30.01,North,0,0.0,0.0,43,0.00,,,0.00,WUHU215HW,2013-03-04 17:32:00,
2013-03-04 10:37:00,31.6,12.0,30.01,NW,315,0.0,0.0,44,0.00,,,0.00,WUHU215HW,2013-03-04 17:37:00,
2013-03-04 10:42:00,31.6,12.0,30.01,NW,315,0.0,0.0,44,0.00,,,0.00,WUHU215HW,2013-03-04 17:42:00,
2013-03-04 10:47:00,31.8,12.7,30.01,NW,315,0.0,0.0,45,0.00,,,0.00,WUHU215HW,2013-03-04 17:47:00,
2013-03-04 10:52:00,32.1,12.5,30.02,West,270,0.0,0.0,44,0.00,,,0.00,WUHU215HW,2013-03-04 17:52:00,
2013-03-04 10:57:00,32.1,12.5,30.02,WSW,248,0.0,0.0,44,0.00,,,0.00,WUHU215HW,2013-03-04 17:57:00,
2013-03-04 11:02:00,32.7,13.0,30.02,WSW,248,0.0,0.0,44,0.00,,,0.00,WUHU215HW,2013-03-04 18:02:00,
2013-03-04 11:07:00,33.8,14.0,30.02,WSW,248,0.0,0.0,44,0.00,,,0.00,WUHU215HW,2013-03-04 18:07:00,
2013-03-04 11:12:00,34.3,14.0,30.02,WSW,248,0.0,0.0,43,0.00,,,0.00,WUHU215HW,2013-03-04 18:12:00,
2013-03-04 11:17:00,34.5,14.1,30.02,West,270,0.0,0.0,43,0.00,,,0.00,WUHU215HW,2013-03-04 18:17:00,
2013-03-04 11:22:00,35.2,14.3,30.02,SSW,203,0.0,0.0,42,0.00,,,0.00,WUHU215HW,2013-03-04 18:22:00,
2013-03-04 11:27:00,35.7,14.8,30.02,SW,225,0.0,0.0,42,0.00,,,0.00,WUHU215HW,2013-03-04 18:27:00,
2013-03-04 11:30:00,35.9,14.4,30.02,NW,315,0.0,0.0,41,0.00,,,0.00,WUHU215HW,2013-03-04 18:30:00,
2013-03-04 11:32:00,35.9,14.4,30.01,WSW,248,0.0,0.0,41,0.00,,,0.00,WUHU215HW,2013-03-04 18:32:00,
2013-03-04 11:37:00,36.3,14.8,30.02,WSW,248,0.0,0.0,41,0.00,,,0.00,WUHU215HW,2013-03-04 18:37:00,
2013-03-04 11:42:00,36.6,14.6,30.02,SSW,203,0.0,0.0,40,0.00,,,0.00,WUHU215HW,2013-03-04 18:42:00,
2013-03-04 11:47:00,37.2,15.6,30.02,South,180,0.0,0.0,41,0.00,,,0.00,WUHU215HW,2013-03-04 18:47:00,
2013-03-04 11:52:00,37.9,15.0,30.02,North,0,0.0,0.0,39,0.00,,,0.00,WUHU215HW,2013-03-04 18:52:00,
2013-03-04 11:57:00,37.9,15.7,30.02,WSW,248,0.0,0.0,40,0.00,,,0.00,WUHU215HW,2013-03-04 18:57:00,
2013-03-04 12:02:00,38.3,15.4,30.02,NW,315,0.0,0.0,39,0.00,,,0.00,WUHU215HW,2013-03-04 19:02:00,
2013-03-04 12:07:00,38.4,15.5,30.02,West,270,0.0,0.0,39,0.00,,,0.00,WUHU215HW,2013-03-04 19:07:00,
2013-03-04 12:12:00,38.4,15.5,30.02,WSW,248,0.0,0.0,39,0.00,,,0.00,WUHU215HW,2013-03-04 19:12:00,
2013-03-04 12:17:00,38.8,16.5,30.02,West,270,0.0,0.0,40,0.00,,,0.00,WUHU215HW,2013-03-04 19:17:00,
2013-03-04 12:22:00,38.4,15.5,30.02,NNW,338,0.0,0.0,39,0.00,,,0.00,WUHU215HW,2013-03-04 19:22:00,
2013-03-04 12:27:00,38.1,14.6,30.02,West,270,0.0,0.0,38,0.00,,,0.00,WUHU215HW,2013-03-04 19:27:00,
2013-03-04 12:32:00,37.9,15.0,30.02,West,270,0.0,0.0,39,0.00,,,0.00,WUHU215HW,2013-03-04 19:32:00,
2013-03-04 12:37:00,38.4,15.5,30.02,South,180,0.0,0.0,39,0.00,,,0.00,WUHU215HW,2013-03-04 19:37:00,
2013-03-04 12:42:00,38.6,15.7,30.02,South,180,0.0,0.0,39,0.00,,,0.00,WUHU215HW,2013-03-04 19:42:00,
2013-03-04 12:47:00,38.4,14.2,30.01,SE,135,0.0,0.0,37,0.00,,,0.00,WUHU215HW,2013-03-04 19:47:00,
2013-03-04 12:52:00,38.1,13.9,30.02,West,270,0.0,0.0,37,0.00,,,0.00,WUHU215HW,2013-03-04 19:52:00,
2013-03-04 12:57:00,38.4,14.9,30.02,West,270,0.0,0.0,38,0.00,,,0.00,WUHU215HW,2013-03-04 19:57:00,
2013-03-04 13:02:00,38.4,14.2,30.02,West,270,0.0,0.0,37,0.00,,,0.00,WUHU215HW,2013-03-04 20:02:00,
2013-03-04 13:07:00,38.8,14.6,30.01,NNE,23,0.0,0.0,37,0.00,,,0.00,WUHU215HW,2013-03-04 20:07:00,
2013-03-04 13:12:00,39.3,15.7,30.02,NNW,338,0.0,0.0,38,0.00,,,0.00,WUHU215HW,2013-03-04 20:12:00,
2013-03-04 13:17:00,39.7,15.4,30.01,North,0,0.0,0.0,37,0.00,,,0.00,WUHU215HW,2013-03-04 20:17:00,
2013-03-04 13:22:00,41.1,16.0,30.01,WSW,248,4.9,4.9,36,0.00,,,0.00,WUHU215HW,2013-03-04 20:22:00,
2013-03-04 13:27:00,41.3,15.5,30.01,SE,135,0.0,4.9,35,0.00,,,0.00,WUHU215HW,2013-03-04 20:27:00,
2013-03-04 13:32:00,41.1,15.4,30.01,SE,135,0.0,4.9,35,0.00,,,0.00,WUHU215HW,2013-03-04 20:32:00,
2013-03-04 13:37:00,42.4,16.4,30.01,NNW,338,1.7,2.0,35,0.00,,,0.00,WUHU215HW,2013-03-04 20:37:00,
2013-03-04 13:42:00,43.8,17.7,30.00,North,0,0.0,2.0,35,0.00,,,0.00,WUHU215HW,2013-03-04 20:42:00,
2013-03-04 13:47:00,45.6,18.0,30.01,NW,315,0.0,1.7,33,0.00,,,0.00,WUHU215HW,2013-03-04 20:47:00,
2013-03-04 13:53:00,47.6,19.8,30.01,WSW,248,0.0,0.0,33,0.00,,,0.00,WUHU215HW,2013-03-04 20:53:00,
2013-03-04 13:58:00,50.1,21.2,30.01,SSE,158,0.0,0.0,33,0.00,,,0.00,WUHU215HW,2013-03-04 20:58:00,
2013-03-04 14:03:00,50.9,21.9,30.01,SW,225,0.0,0.0,32,0.00,,,0.00,WUHU215HW,2013-03-04 21:03:00,
2013-03-04 14:08:00,51.6,22.5,30.00,NW,315,0.0,0.0,32,0.00,,,0.00,WUHU215HW,2013-03-04 21:08:00,
2013-03-04 14:13:00,51.9,22.2,30.00,SSW,203,0.0,0.0,31,0.00,,,0.00,WUHU215HW,2013-03-04 21:13:00,
2013-03-04 14:18:00,51.6,20.2,30.01,SSE,158,0.0,0.0,29,0.00,,,0.00,WUHU215HW,2013-03-04 21:18:00,
2013-03-04 14:23:00,51.6,21.2,30.00,SSE,158,0.0,0.0,30,0.00,,,0.00,WUHU215HW,2013-03-04 21:23:00,
2013-03-04 14:28:00,51.8,22.0,30.00,West,270,0.0,0.0,31,0.00,,,0.00,WUHU215HW,2013-03-04 21:28:00,
2013-03-04 14:33:00,51.9,18.7,30.01,SSE,158,0.0,0.0,27,0.00,,,0.00,WUHU215HW,2013-03-04 21:33:00,
2013-03-04 14:38:00,50.9,19.6,30.00,South,180,0.0,0.0,29,0.00,,,0.00,WUHU215HW,2013-03-04 21:38:00,
2013-03-04 14:43:00,51.6,21.0,30.01,SW,225,0.0,0.0,30,0.00,,,0.00,WUHU215HW,2013-03-04 21:43:00,
2013-03-04 14:48:00,50.7,19.4,30.00,SSW,203,0.0,0.0,29,0.00,,,0.00,WUHU215HW,2013-03-04 21:48:00,
2013-03-04 14:50:00,49.8,18.6,30.01,SSE,158,0.0,0.0,29,0.00,,,0.00,WUHU215HW,2013-03-04 21:50:00,
2013-03-04 14:55:00,49.8,19.6,30.01,South,180,0.0,0.0,30,0.00,,,0.00,WUHU215HW,2013-03-04 21:55:00,
2013-03-04 15:00:00,48.9,17.9,30.01,South,180,0.0,0.0,29,0.00,,,0.00,WUHU215HW,2013-03-04 22:00:00,
2013-03-04 15:05:00,48.9,18.8,30.01,SSE,158,0.0,4.6,30,0.00,,,0.00,WUHU215HW,2013-03-04 22:05:00,
2013-03-04 15:08:00,49.2,19.1,30.01,South,180,0.0,4.6,30,0.00,,,0.00,WUHU215HW,2013-03-04 22:08:00,
2013-03-04 15:13:00,50.1,21.2,30.01,SSW,203,0.0,0.0,31,0.00,,,0.00,WUHU215HW,2013-03-04 22:13:00,
2013-03-04 15:18:00,51.0,19.7,30.01,SW,225,0.0,0.0,29,0.00,,,0.00,WUHU215HW,2013-03-04 22:18:00,
2013-03-04 15:23:00,49.2,18.2,30.01,WNW,293,0.0,0.0,29,0.00,,,0.00,WUHU215HW,2013-03-04 22:23:00,
2013-03-04 15:28:00,46.5,14.6,30.01,SE,135,0.0,2.2,29,0.00,,,0.00,WUHU215HW,2013-03-04 22:28:00,
2013-03-04 15:33:00,43.5,14.1,30.01,SSE,158,0.0,2.2,30,0.00,,,0.00,WUHU215HW,2013-03-04 22:33:00,
2013-03-04 15:38:00,42.6,13.9,30.01,SW,225,0.0,0.0,31,0.00,,,0.00,WUHU215HW,2013-03-04 22:38:00,
2013-03-04 15:43:00,42.0,14.0,30.01,South,180,0.0,0.0,31,0.00,,,0.00,WUHU215HW,2013-03-04 22:43:00,
2013-03-04 15:48:00,41.7,14.5,30.01,SSW,203,0.0,0.0,33,0.00,,,0.00,WUHU215HW,2013-03-04 22:48:00,
2013-03-04 15:53:00,41.3,14.2,30.01,SSW,203,0.0,0.0,33,0.00,,,0.00,WUHU215HW,2013-03-04 22:53:00,
2013-03-04 15:58:00,40.8,13.8,30.01,SE,135,0.0,1.7,33,0.00,,,0.00,WUHU215HW,2013-03-04 22:58:00,
2013-03-04 16:03:00,40.6,14.2,30.01,SSE,158,0.0,1.7,34,0.00,,,0.00,WUHU215HW,2013-03-04 23:03:00,
2013-03-04 16:09:00,40.4,14.7,30.00,WSW,248,0.0,0.0,35,0.00,,,0.00,WUHU215HW,2013-03-04 23:09:00,
2013-03-04 16:14:00,40.2,14.6,30.01,South,180,0.0,0.0,35,0.00,,,0.00,WUHU215HW,2013-03-04 23:14:00,
2013-03-04 16:20:00,39.9,13.6,30.01,SSE,158,0.0,0.0,34,0.00,,,0.00,WUHU215HW,2013-03-04 23:20:00,
2013-03-04 16:25:00,39.7,13.4,30.01,SSE,158,0.0,0.0,34,0.00,,,0.00,WUHU215HW,2013-03-04 23:25:00,
2013-03-04 16:30:00,39.5,13.3,30.01,SSE,158,0.0,0.0,34,0.00,,,0.00,WUHU215HW,2013-03-04 23:30:00,
2013-03-04 16:35:00,39.9,14.2,30.01,South,180,0.0,0.0,35,0.00,,,0.00,WUHU215HW,2013-03-04 23:35:00,
2013-03-04 16:41:00,39.9,13.6,30.00,SSE,158,0.0,0.0,34,0.00,,,0.00,WUHU215HW,2013-03-04 23:41:00,
2013-03-04 16:46:00,39.7,13.4,30.00,SSE,158,0.0,0.0,34,0.00,,,0.00,WUHU215HW,2013-03-04 23:46:00,
2013-03-04 16:51:00,40.1,13.8,29.99,SSE,158,0.0,0.0,34,0.00,,,0.00,WUHU215HW,2013-03-04 23:51:00,
2013-03-04 16:56:00,40.6,14.2,29.99,SSE,158,0.0,0.0,34,0.00,,,0.00,WUHU215HW,2013-03-04 23:56:00,
2013-03-04 17:01:00,41.0,14.6,30.00,SSE,158,0.0,0.0,34,0.00,,,0.00,WUHU215HW,2013-03-05 00:01:00,
2013-03-04 17:06:00,41.1,14.7,30.00,SSE,158,0.0,0.0,34,0.00,,,0.00,WUHU215HW,2013-03-05 00:06:00,
2013-03-04 17:11:00,40.8,14.4,30.00,SSE,158,0.0,0.0,34,0.00,,,0.00,WUHU215HW,2013-03-05 00:11:00,
2013-03-04 17:16:00,40.2,13.9,30.00,SSE,158,0.0,0.0,34,0.00,,,0.00,WUHU215HW,2013-03-05 00:16:00,
2013-03-04 17:21:00,39.5,13.3,30.00,SSE,158,0.0,0.0,34,0.00,,,0.00,WUHU215HW,2013-03-05 00:21:00,
2013-03-04 17:26:00,38.4,12.9,30.00,South,180,0.0,0.0,35,0.00,,,0.00,WUHU215HW,2013-03-05 00:26:00,
2013-03-04 17:31:00,38.1,13.3,30.00,SSE,158,0.0,0.0,36,0.00,,,0.00,WUHU215HW,2013-03-05 00:31:00,
2013-03-04 17:36:00,37.9,13.1,30.00,SSE,158,0.0,0.0,36,0.00,,,0.00,WUHU215HW,2013-03-05 00:36:00,
2013-03-04 17:41:00,37.2,12.5,30.00,South,180,0.0,0.0,36,0.00,,,0.00,WUHU215HW,2013-03-05 00:41:00,
2013-03-04 17:46:00,37.0,12.3,30.00,South,180,0.0,0.0,36,0.00,,,0.00,WUHU215HW,2013-03-05 00:46:00,
2013-03-04 17:51:00,36.6,12.0,30.00,SSE,158,0.0,0.0,36,0.00,,,0.00,WUHU215HW,2013-03-05 00:51:00,
2013-03-04 17:56:00,36.3,12.3,30.00,SSE,158,0.0,0.0,37,0.00,,,0.00,WUHU215HW,2013-03-05 00:56:00,
2013-03-04 18:01:00,35.9,12.0,30.01,SSE,158,0.0,0.0,37,0.00,,,0.00,WUHU215HW,2013-03-05 01:01:00,
2013-03-04 18:06:00,35.4,11.5,30.01,SSE,158,0.0,0.0,37,0.00,,,0.00,WUHU215HW,2013-03-05 01:06:00,
2013-03-04 18:11:00,34.8,11.0,30.01,South,180,0.0,0.0,37,0.00,,,0.00,WUHU215HW,2013-03-05 01:11:00,
2013-03-04 18:16:00,34.5,11.3,30.01,South,180,0.0,0.0,38,0.00,,,0.00,WUHU215HW,2013-03-05 01:16:00,
2013-03-04 18:21:00,34.3,11.2,30.01,SSE,158,0.0,0.0,38,0.00,,,0.00,WUHU215HW,2013-03-05 01:21:00,
2013-03-04 18:27:00,33.6,9.9,30.00,SSE,158,0.0,0.0,37,0.00,,,0.00,WUHU215HW,2013-03-05 01:27:00,
2013-03-04 18:32:00,33.0,10.1,30.00,SSE,158,0.0,0.0,38,0.00,,,0.00,WUHU215HW,2013-03-05 01:32:00,
2013-03-04 18:37:00,32.7,9.7,30.00,SSE,158,0.0,0.0,38,0.00,,,0.00,WUHU215HW,2013-03-05 01:37:00,
2013-03-04 18:42:00,32.3,10.0,30.00,SSE,158,0.0,0.0,39,0.00,,,0.00,WUHU215HW,2013-03-05 01:42:00,
2013-03-04 18:48:00,31.8,8.9,30.00,SSE,158,0.0,0.0,38,0.00,,,0.00,WUHU215HW,2013-03-05 01:48:00,
2013-03-04 18:53:00,31.6,9.4,30.00,SSE,158,0.0,0.0,39,0.00,,,0.00,WUHU215HW,2013-03-05 01:53:00,
2013-03-04 18:59:00,30.9,8.7,30.01,SSE,158,0.0,0.0,39,0.00,,,0.00,WUHU215HW,2013-03-05 01:59:00,
2013-03-04 19:04:00,30.5,9.1,30.01,SSE,158,0.0,0.0,40,0.00,,,0.00,WUHU215HW,2013-03-05 02:04:00,
2013-03-04 19:09:00,29.8,8.4,30.00,SSE,158,0.0,0.0,40,0.00,,,0.00,WUHU215HW,2013-03-05 02:09:00,
2013-03-04 19:14:00,29.4,8.1,30.01,SSE,158,0.0,0.0,40,0.00,,,0.00,WUHU215HW,2013-03-05 02:14:00,
2013-03-04 19:19:00,29.1,7.8,30.00,SSE,158,0.0,0.0,40,0.00,,,0.00,WUHU215HW,2013-03-05 02:19:00,
2013-03-04 19:24:00,28.9,7.6,30.00,SSE,158,0.0,0.0,40,0.00,,,0.00,WUHU215HW,2013-03-05 02:24:00,
2013-03-04 19:29:00,28.9,8.1,30.01,SSE,158,0.0,0.0,41,0.00,,,0.00,WUHU215HW,2013-03-05 02:29:00,
2013-03-04 19:34:00,28.5,7.8,30.01,SSE,158,0.0,0.0,41,0.00,,,0.00,WUHU215HW,2013-03-05 02:34:00,
2013-03-04 19:39:00,28.2,7.9,30.00,SSE,158,0.0,0.0,42,0.00,,,0.00,WUHU215HW,2013-03-05 02:39:00,
2013-03-04 19:44:00,28.0,8.3,30.01,SSE,158,0.0,0.0,43,0.00,,,0.00,WUHU215HW,2013-03-05 02:44:00,
2013-03-04 19:49:00,27.6,7.9,30.01,SSE,158,0.0,0.0,43,0.00,,,0.00,WUHU215HW,2013-03-05 02:49:00,
2013-03-04 19:54:00,27.6,8.4,30.01,SSE,158,0.0,0.0,44,0.00,,,0.00,WUHU215HW,2013-03-05 02:54:00,
2013-03-04 19:59:00,27.6,8.4,30.01,SSE,158,0.0,0.0,44,0.00,,,0.00,WUHU215HW,2013-03-05 02:59:00,
2013-03-04 20:04:00,27.6,8.9,30.01,SSE,158,0.0,0.0,45,0.00,,,0.00,WUHU215HW,2013-03-05 03:04:00,
2013-03-04 20:09:00,27.5,8.8,30.01,SSE,158,0.0,0.0,45,0.00,,,0.00,WUHU215HW,2013-03-05 03:09:00,
2013-03-04 20:14:00,27.3,8.6,30.01,SSE,158,0.0,0.0,45,0.00,,,0.00,WUHU215HW,2013-03-05 03:14:00,
2013-03-04 20:19:00,27.1,8.4,30.01,SSE,158,0.0,0.0,44,0.00,,,0.00,WUHU215HW,2013-03-05 03:19:00,
2013-03-04 20:24:00,27.1,8.4,30.01,SSE,158,0.0,0.0,45,0.00,,,0.00,WUHU215HW,2013-03-05 03:24:00,
2013-03-04 20:29:00,26.9,8.3,30.01,SSE,158,0.0,0.0,45,0.00,,,0.00,WUHU215HW,2013-03-05 03:29:00,
2013-03-04 20:34:00,26.9,8.1,30.01,SSE,158,0.0,0.0,45,0.00,,,0.00,WUHU215HW,2013-03-05 03:34:00,
2013-03-04 20:39:00,26.4,8.2,30.01,SSE,158,0.0,0.0,46,0.00,,,0.00,WUHU215HW,2013-03-05 03:39:00,
2013-03-04 20:44:00,26.2,8.1,30.01,SSE,158,0.0,0.0,46,0.00,,,0.00,WUHU215HW,2013-03-05 03:44:00,
2013-03-04 20:49:00,25.8,8.4,30.01,SSE,158,0.0,0.0,47,0.00,,,0.00,WUHU215HW,2013-03-05 03:49:00,
2013-03-04 20:54:00,25.7,8.1,30.01,SSE,158,0.0,0.0,47,0.00,,,0.00,WUHU215HW,2013-03-05 03:54:00,
2013-03-04 20:59:00,25.5,8.4,30.00,SSE,158,0.0,0.0,48,0.00,,,0.00,WUHU215HW,2013-03-05 03:59:00,
2013-03-04 21:04:00,25.3,8.7,30.01,SSE,158,0.0,0.0,49,0.00,,,0.00,WUHU215HW,2013-03-05 04:04:00,
2013-03-04 21:09:00,25.1,9.1,30.00,SSE,158,0.0,0.0,50,0.00,,,0.00,WUHU215HW,2013-03-05 04:09:00,
2013-03-04 21:14:00,24.9,8.9,30.00,SSE,158,0.0,0.0,50,0.00,,,0.00,WUHU215HW,2013-03-05 04:14:00,
2013-03-04 21:19:00,24.9,8.9,30.00,SSE,158,0.0,0.0,50,0.00,,,0.00,WUHU215HW,2013-03-05 04:19:00,
2013-03-04 21:24:00,24.6,9.0,30.00,SSE,158,0.0,0.0,51,0.00,,,0.00,WUHU215HW,2013-03-05 04:24:00,
2013-03-04 21:29:00,24.6,9.0,30.00,SSE,158,0.0,0.0,51,0.00,,,0.00,WUHU215HW,2013-03-05 04:29:00,
2013-03-04 21:34:00,24.4,8.4,30.00,SSE,158,0.0,0.0,50,0.00,,,0.00,WUHU215HW,2013-03-05 04:34:00,
2013-03-04 21:39:00,24.0,8.5,30.00,SSE,158,0.0,0.0,51,0.00,,,0.00,WUHU215HW,2013-03-05 04:39:00,
2013-03-04 21:44:00,23.9,8.7,30.00,SSE,158,0.0,0.0,52,0.00,,,0.00,WUHU215HW,2013-03-05 04:44:00,
2013-03-04 21:49:00,23.7,9.0,30.00,SSE,158,0.0,0.0,53,0.00,,,0.00,WUHU215HW,2013-03-05 04:49:00,
2013-03-04 21:54:00,23.5,8.8,30.00,SSE,158,0.0,0.0,53,0.00,,,0.00,WUHU215HW,2013-03-05 04:54:00,
2013-03-04 21:59:00,23.1,8.5,30.00,SSE,158,0.0,0.0,53,0.00,,,0.00,WUHU215HW,2013-03-05 04:59:00,
2013-03-04 22:00:00,23.1,8.9,30.00,SSE,158,0.0,0.0,54,0.00,,,0.00,WUHU215HW,2013-03-05 05:00:00,
2013-03-04 22:01:00,23.1,8.9,30.00,SSE,158,0.0,0.0,54,0.00,,,0.00,WUHU215HW,2013-03-05 05:01:00,
2013-03-04 22:02:00,23.0,8.7,30.01,SSE,158,0.0,0.0,54,0.00,,,0.00,WUHU215HW,2013-03-05 05:02:00,
2013-03-04 22:03:00,23.0,8.7,30.01,SSE,158,0.0,0.0,54,0.00,,,0.00,WUHU215HW,2013-03-05 05:03:00,
2013-03-04 22:08:00,22.8,8.5,30.01,SSE,158,0.0,0.0,54,0.00,,,0.00,WUHU215HW,2013-03-05 05:08:00,
2013-03-04 22:13:00,22.6,8.3,30.01,SSE,158,0.0,0.0,54,0.00,,,0.00,WUHU215HW,2013-03-05 05:13:00,
2013-03-04 22:18:00,22.6,8.3,30.01,SSE,158,0.0,0.0,54,0.00,,,0.00,WUHU215HW,2013-03-05 05:18:00,
2013-03-04 22:23:00,22.6,8.3,30.01,SSE,158,0.0,0.0,54,0.00,,,0.00,WUHU215HW,2013-03-05 05:23:00,
2013-03-04 22:28:00,22.6,8.3,30.00,SSE,158,0.0,0.0,54,0.00,,,0.00,WUHU215HW,2013-03-05 05:28:00,
2013-03-04 22:33:00,22.4,8.2,30.00,SSE,158,0.0,0.0,54,0.00,,,0.00,WUHU215HW,2013-03-05 05:33:00,
2013-03-04 22:38:00,22.2,8.0,30.01,SSE,158,0.0,0.0,54,0.00,,,0.00,WUHU215HW,2013-03-05 05:38:00,
2013-03-04 22:43:00,22.1,8.2,30.01,SSE,158,0.0,0.0,55,0.00,,,0.00,WUHU215HW,2013-03-05 05:43:00,
2013-03-04 22:48:00,21.9,7.7,30.00,SSE,158,0.0,0.0,54,0.00,,,0.00,WUHU215HW,2013-03-05 05:48:00,
2013-03-04 22:53:00,21.7,7.5,30.00,SSE,158,0.0,0.0,54,0.00,,,0.00,WUHU215HW,2013-03-05 05:53:00,
2013-03-04 22:58:00,21.9,7.7,30.00,SSE,158,0.0,0.0,54,0.00,,,0.00,WUHU215HW,2013-03-05 05:58:00,
2013-03-04 23:03:00,21.9,7.7,30.00,SSE,158,0.0,0.0,54,0.00,,,0.00,WUHU215HW,2013-03-05 06:03:00,
2013-03-04 23:08:00,21.9,8.1,30.00,SSE,158,0.0,0.0,55,0.00,,,0.00,WUHU215HW,2013-03-05 06:08:00,
2013-03-04 23:13:00,21.7,7.9,30.00,SSE,158,0.0,0.0,55,0.00,,,0.00,WUHU215HW,2013-03-05 06:13:00,
2013-03-04 23:18:00,21.5,7.7,30.01,SSE,158,0.0,0.0,55,0.00,,,0.00,WUHU215HW,2013-03-05 06:18:00,
2013-03-04 23:23:00,21.5,7.7,30.00,SSE,158,0.0,0.0,55,0.00,,,0.00,WUHU215HW,2013-03-05 06:23:00,
2013-03-04 23:28:00,21.0,7.2,30.00,SSE,158,0.0,0.0,55,0.00,,,0.00,WUHU215HW,2013-03-05 06:28:00,
2013-03-04 23:33:00,21.0,7.2,30.00,SSE,158,0.0,0.0,55,0.00,,,0.00,WUHU215HW,2013-03-05 06:33:00,
2013-03-04 23:38:00,20.8,7.4,30.00,SSE,158,0.0,0.0,56,0.00,,,0.00,WUHU215HW,2013-03-05 06:38:00,
2013-03-04 23:43:00,20.6,7.3,29.99,SSE,158,0.0,0.0,56,0.00,,,0.00,WUHU215HW,2013-03-05 06:43:00,
2013-03-04 23:48:00,20.4,7.1,29.99,SSE,158,0.0,0.0,56,0.00,,,0.00,WUHU215HW,2013-03-05 06:48:00,
2013-03-04 23:53:00,20.3,6.9,29.99,SSE,158,0.0,0.0,56,0.00,,,0.00,WUHU215HW,2013-03-05 06:53:00,
2013-03-04 23:58:00,20.1,6.8,29.99,SSE,158,0.0,0.0,56,0.00,,,0.00,WUHU215HW,2013-03-05 06:58:00,